createdAt,value
2022-11-27T00:00:21.224Z,99.90
2022-11-27T00:03:10.155Z,99.90
2022-11-27T00:06:00.440Z,99.90
2022-11-27T00:08:50.072Z,99.90
2022-11-27T00:11:40.449Z,99.90
2022-11-27T00:14:29.389Z,99.90
2022-11-27T00:17:18.076Z,99.90
2022-11-27T00:20:08.260Z,99.90
2022-11-27T00:22:58.551Z,99.90
2022-11-27T00:25:52.722Z,99.90
2022-11-27T00:28:41.426Z,99.90
2022-11-27T00:31:32.055Z,99.90
2022-11-27T00:34:20.782Z,99.90
2022-11-27T00:37:09.592Z,99.90
2022-11-27T00:40:00.055Z,99.90
2022-11-27T00:42:48.814Z,99.90
2022-11-27T00:45:37.518Z,99.90
2022-11-27T00:48:26.201Z,99.90
2022-11-27T00:51:23.150Z,99.90
2022-11-27T00:54:12.181Z,99.90
2022-11-27T00:57:02.410Z,99.90
2022-11-27T00:59:51.113Z,99.90
2022-11-27T01:02:39.843Z,99.90
2022-11-27T01:05:28.641Z,99.90
2022-11-27T01:08:19.325Z,99.90
2022-11-27T01:11:08.635Z,99.90
2022-11-27T01:14:00.945Z,99.90
2022-11-27T01:16:49.689Z,99.90
2022-11-27T01:19:39.434Z,99.90
2022-11-27T01:22:28.206Z,99.90
2022-11-27T01:25:17.011Z,99.90
2022-11-27T01:28:05.970Z,99.50
2022-11-27T01:30:56.871Z,99.90
2022-11-27T01:33:46.414Z,99.60
2022-11-27T01:36:36.278Z,99.80
2022-11-27T01:39:25.323Z,99.90
2022-11-27T01:42:14.385Z,99.90
2022-11-27T01:45:03.126Z,99.90
2022-11-27T01:47:56.128Z,99.90
2022-11-27T01:50:44.860Z,99.90
2022-11-27T01:53:34.433Z,99.90
2022-11-27T01:56:24.887Z,99.90
2022-11-27T01:59:14.678Z,99.90
2022-11-27T02:02:06.088Z,99.90
2022-11-27T02:04:56.875Z,99.90
2022-11-27T02:07:46.565Z,99.90
2022-11-27T02:10:44.683Z,99.90
2022-11-27T02:13:38.546Z,99.90
2022-11-27T02:16:37.877Z,99.90
2022-11-27T02:19:41.851Z,99.90
2022-11-27T02:22:43.096Z,99.90
2022-11-27T02:25:39.272Z,99.90
2022-11-27T02:28:42.580Z,99.90
2022-11-27T02:31:40.106Z,99.90
2022-11-27T02:34:39.142Z,99.90
2022-11-27T02:37:33.684Z,99.90
2022-11-27T02:40:29.708Z,99.90
2022-11-27T02:43:23.201Z,99.90
2022-11-27T02:46:14.097Z,99.90
2022-11-27T02:49:08.043Z,99.90
2022-11-27T02:51:59.297Z,99.90
2022-11-27T02:54:51.626Z,99.90
2022-11-27T02:57:41.561Z,99.90
2022-11-27T03:00:30.948Z,99.90
2022-11-27T03:03:23.022Z,99.90
2022-11-27T03:06:19.797Z,99.90
2022-11-27T03:09:11.840Z,99.90
2022-11-27T03:12:00.880Z,99.90
2022-11-27T03:14:50.246Z,99.90
2022-11-27T03:17:54.020Z,99.90
2022-11-27T03:20:48.794Z,99.90
2022-11-27T03:23:39.215Z,99.90
2022-11-27T03:26:28.461Z,99.90
2022-11-27T03:29:23.096Z,99.90
2022-11-27T03:32:12.257Z,99.90
2022-11-27T03:35:02.035Z,99.90
2022-11-27T03:37:51.288Z,99.90
2022-11-27T03:40:51.162Z,99.90
2022-11-27T03:43:48.624Z,99.90
2022-11-27T03:46:47.757Z,99.90
2022-11-27T03:49:46.672Z,99.90
2022-11-27T03:52:43.732Z,99.90
2022-11-27T03:55:43.585Z,99.90
2022-11-27T03:58:37.773Z,99.90
2022-11-27T04:01:28.678Z,99.90
2022-11-27T04:04:17.629Z,99.90
2022-11-27T04:07:06.316Z,99.90
2022-11-27T04:09:55.055Z,99.90
2022-11-27T04:12:44.019Z,99.90
2022-11-27T04:15:34.221Z,99.90
2022-11-27T04:18:23.388Z,99.90
2022-11-27T04:21:12.840Z,99.90
2022-11-27T04:24:03.955Z,99.90
2022-11-27T04:26:52.922Z,99.90
2022-11-27T04:29:41.944Z,99.90
2022-11-27T04:32:32.076Z,99.90
2022-11-27T04:35:21.123Z,99.90
2022-11-27T04:38:10.118Z,99.90
2022-11-27T04:40:59.064Z,99.90
2022-11-27T04:43:47.828Z,99.90
2022-11-27T04:46:36.567Z,99.90
2022-11-27T04:49:27.020Z,99.90
2022-11-27T04:52:15.828Z,99.90
2022-11-27T04:55:04.682Z,99.90
2022-11-27T04:57:53.491Z,99.90
2022-11-27T05:00:42.249Z,99.90
2022-11-27T05:03:31.011Z,99.90
2022-11-27T05:06:22.741Z,99.90
2022-11-27T05:09:11.587Z,99.90
2022-11-27T05:12:00.314Z,99.90
2022-11-27T05:14:49.030Z,99.90
2022-11-27T05:17:37.697Z,99.90
2022-11-27T05:20:26.452Z,99.90
2022-11-27T05:23:16.600Z,99.90
2022-11-27T05:26:05.339Z,99.90
2022-11-27T05:28:54.158Z,99.90
2022-11-27T05:31:43.012Z,99.90
2022-11-27T05:34:31.981Z,99.90
2022-11-27T05:37:20.665Z,99.90
2022-11-27T05:40:11.814Z,99.90
2022-11-27T05:43:00.554Z,99.90
2022-11-27T05:45:49.245Z,99.90
2022-11-27T05:48:38.320Z,99.90
2022-11-27T05:51:27.074Z,99.90
2022-11-27T05:54:15.849Z,99.90
2022-11-27T05:57:05.934Z,99.90
2022-11-27T05:59:54.656Z,99.90
2022-11-27T06:02:43.397Z,99.90
2022-11-27T06:05:32.393Z,99.90
2022-11-27T06:08:21.365Z,99.90
2022-11-27T06:11:11.445Z,99.90
2022-11-27T06:14:01.893Z,99.90
2022-11-27T06:16:50.670Z,99.90
2022-11-27T06:19:39.389Z,99.90
2022-11-27T06:22:28.564Z,99.90
2022-11-27T06:25:17.412Z,99.90
2022-11-27T06:28:06.302Z,99.90
2022-11-27T06:30:56.444Z,99.90
2022-11-27T06:33:45.178Z,99.90
2022-11-27T06:36:38.210Z,99.90
2022-11-27T06:39:26.980Z,99.90
2022-11-27T06:42:15.929Z,99.90
2022-11-27T06:45:04.872Z,99.90
2022-11-27T06:47:55.053Z,99.90
2022-11-27T06:50:43.870Z,99.90
2022-11-27T06:53:34.775Z,99.90
2022-11-27T06:56:26.314Z,99.90
2022-11-27T06:59:15.701Z,99.90
2022-11-27T07:02:04.424Z,99.90
2022-11-27T07:04:56.108Z,99.90
2022-11-27T07:07:44.825Z,99.90
2022-11-27T07:10:36.168Z,99.90
2022-11-27T07:13:24.881Z,99.90
2022-11-27T07:16:14.903Z,99.90
2022-11-27T07:19:06.855Z,99.90
2022-11-27T07:21:56.980Z,99.90
2022-11-27T07:24:45.674Z,99.90
2022-11-27T07:27:34.478Z,99.90
2022-11-27T07:30:23.249Z,99.90
2022-11-27T07:33:12.032Z,99.90
2022-11-27T07:36:02.474Z,99.90
2022-11-27T07:38:53.307Z,99.90
2022-11-27T07:41:41.956Z,99.90
2022-11-27T07:44:30.723Z,99.90
2022-11-27T07:47:19.726Z,99.90
2022-11-27T07:50:10.127Z,99.90
2022-11-27T07:53:00.016Z,99.90
2022-11-27T07:55:50.816Z,99.90
2022-11-27T07:58:39.578Z,98.70
2022-11-27T08:01:28.998Z,95.40
2022-11-27T08:04:17.848Z,92.60
2022-11-27T08:07:06.658Z,91.80
2022-11-27T08:09:55.413Z,92.60
2022-11-27T08:12:45.488Z,90.90
2022-11-27T08:15:34.634Z,90.30
2022-11-27T08:18:23.314Z,91.50
2022-11-27T08:21:12.050Z,91.90
2022-11-27T08:24:00.782Z,92.20
2022-11-27T08:26:52.244Z,91.60
2022-11-27T08:29:42.529Z,92.10
2022-11-27T08:32:31.183Z,91.80
2022-11-27T08:35:19.988Z,90.30
2022-11-27T08:38:08.700Z,89.70
2022-11-27T08:40:59.133Z,87.20
2022-11-27T08:43:47.955Z,84.60
2022-11-27T08:46:38.293Z,85.40
2022-11-27T08:49:26.980Z,85.00
2022-11-27T08:52:15.765Z,83.40
2022-11-27T08:55:04.962Z,81.20
2022-11-27T08:57:53.805Z,78.20
2022-11-27T09:00:43.087Z,76.40
2022-11-27T09:03:33.298Z,74.70
2022-11-27T09:06:24.420Z,72.50
2022-11-27T09:09:13.178Z,67.80
2022-11-27T09:12:01.915Z,67.30
2022-11-27T09:14:50.782Z,63.40
2022-11-27T09:17:39.545Z,65.50
2022-11-27T09:20:30.009Z,63.90
2022-11-27T09:23:18.668Z,65.40
2022-11-27T09:26:11.375Z,66.50
2022-11-27T09:29:00.801Z,70.30
2022-11-27T09:31:49.614Z,71.80
2022-11-27T09:34:38.599Z,71.50
2022-11-27T09:37:29.160Z,71.60
2022-11-27T09:40:19.014Z,69.90
2022-11-27T09:43:10.023Z,72.70
2022-11-27T09:46:01.533Z,69.70
2022-11-27T09:48:52.694Z,65.30
2022-11-27T09:51:45.465Z,64.90
2022-11-27T09:54:39.568Z,65.10
2022-11-27T09:57:33.019Z,64.70
2022-11-27T10:00:22.652Z,67.70
2022-11-27T10:03:15.548Z,66.60
2022-11-27T10:06:13.179Z,65.90
2022-11-27T10:09:15.566Z,65.70
2022-11-27T10:12:15.007Z,68.80
2022-11-27T10:15:10.802Z,63.60
2022-11-27T10:18:06.167Z,64.10
2022-11-27T10:20:58.099Z,62.00
2022-11-27T10:23:56.763Z,66.70
2022-11-27T10:26:48.437Z,57.40
2022-11-27T10:29:47.119Z,59.50
2022-11-27T10:32:55.435Z,63.50
2022-11-27T10:35:48.039Z,58.70
2022-11-27T10:38:40.444Z,62.30
2022-11-27T10:41:48.641Z,59.80
2022-11-27T10:44:45.558Z,58.20
2022-11-27T10:47:34.544Z,47.60
2022-11-27T10:50:24.910Z,43.20
2022-11-27T10:53:21.076Z,42.10
2022-11-27T10:56:24.793Z,43.70
2022-11-27T10:59:21.960Z,41.90
2022-11-27T11:05:57.443Z,29.10
2022-11-27T11:08:31.571Z,24.50
2022-11-27T11:11:27.949Z,33.00
2022-11-27T11:14:21.754Z,33.80
2022-11-27T11:17:17.655Z,39.00
2022-11-27T11:20:21.466Z,38.70
2022-11-27T11:23:23.343Z,35.50
2022-11-27T11:26:25.524Z,35.30
2022-11-27T11:29:32.061Z,33.90
2022-11-27T11:32:26.926Z,32.50
2022-11-27T11:35:29.945Z,31.40
2022-11-27T11:38:23.200Z,33.10
2022-11-27T11:41:12.962Z,30.40
2022-11-27T11:44:03.043Z,33.50
2022-11-27T11:46:55.949Z,29.20
2022-11-27T11:49:44.643Z,32.40
2022-11-27T11:52:47.129Z,35.10
2022-11-27T11:55:40.447Z,33.10
2022-11-27T11:58:55.649Z,33.50
2022-11-27T12:01:56.896Z,35.50
2022-11-27T12:05:04.701Z,35.10
2022-11-27T12:08:30.418Z,36.60
2022-11-27T12:11:24.561Z,35.10
2022-11-27T12:14:22.901Z,38.60
2022-11-27T12:17:25.939Z,35.30
2022-11-27T12:20:19.491Z,35.10
2022-11-27T12:23:43.187Z,35.50
2022-11-27T12:26:41.358Z,34.40
2022-11-27T12:29:50.865Z,35.70
2022-11-27T12:32:57.346Z,35.20
2022-11-27T12:35:54.273Z,33.90
2022-11-27T12:39:13.592Z,34.00
2022-11-27T12:42:09.289Z,33.40
2022-11-27T12:45:05.684Z,35.40
2022-11-27T12:47:58.046Z,35.90
2022-11-27T12:50:51.346Z,38.30
2022-11-27T12:53:45.447Z,40.10
2022-11-27T12:56:42.020Z,44.40
2022-11-27T12:59:34.696Z,44.30
2022-11-27T13:02:37.514Z,44.10
2022-11-27T13:05:30.147Z,47.50
2022-11-27T13:08:25.797Z,49.00
2022-11-27T13:11:16.636Z,48.10
2022-11-27T13:14:12.854Z,51.40
2022-11-27T13:17:06.317Z,51.90
2022-11-27T13:19:55.191Z,54.10
2022-11-27T13:22:45.014Z,54.20
2022-11-27T13:25:41.242Z,54.60
2022-11-27T13:28:38.305Z,56.80
2022-11-27T13:31:33.167Z,58.50
2022-11-27T13:34:25.683Z,57.20
2022-11-27T13:37:29.352Z,56.80
2022-11-27T13:40:22.206Z,55.60
2022-11-27T13:43:23.907Z,58.70
2022-11-27T13:46:26.053Z,55.30
2022-11-27T13:49:26.509Z,55.90
2022-11-27T13:52:19.008Z,56.70
2022-11-27T13:55:09.982Z,57.50
2022-11-27T13:58:01.128Z,57.30
2022-11-27T14:00:49.872Z,54.60
2022-11-27T14:03:40.626Z,54.80
2022-11-27T14:06:33.012Z,55.00
2022-11-27T14:09:32.871Z,55.70
2022-11-27T14:12:25.282Z,57.50
2022-11-27T14:15:23.993Z,55.80
2022-11-27T14:18:19.894Z,47.70
2022-11-27T14:21:08.577Z,44.70
2022-11-27T14:24:00.724Z,38.10
2022-11-27T14:26:49.461Z,37.70
2022-11-27T14:29:38.251Z,36.50
2022-11-27T14:32:37.109Z,35.80
2022-11-27T14:35:29.585Z,37.40
2022-11-27T14:38:18.291Z,34.30
2022-11-27T14:41:13.093Z,33.90
2022-11-27T14:44:02.309Z,30.10
2022-11-27T14:46:52.347Z,30.00
2022-11-27T14:49:42.271Z,29.30
2022-11-27T14:52:31.654Z,29.80
2022-11-27T14:55:21.232Z,28.60
2022-11-27T14:58:16.339Z,30.20
2022-11-27T15:01:07.895Z,31.70
2022-11-27T15:03:58.211Z,30.30
2022-11-27T15:06:47.834Z,33.20
2022-11-27T15:09:37.760Z,32.70
2022-11-27T15:12:30.126Z,33.80
2022-11-27T15:15:23.790Z,37.90
2022-11-27T15:18:22.770Z,38.30
2022-11-27T15:21:12.965Z,42.20
2022-11-27T15:24:01.690Z,45.40
2022-11-27T15:26:50.396Z,47.00
2022-11-27T15:29:39.889Z,49.90
2022-11-27T15:32:47.020Z,51.90
2022-11-27T15:35:36.414Z,52.70
2022-11-27T15:38:25.068Z,53.30
2022-11-27T15:41:24.830Z,56.00
2022-11-27T15:44:13.564Z,56.40
2022-11-27T15:47:03.980Z,57.00
2022-11-27T15:49:54.133Z,58.10
2022-11-27T15:52:42.781Z,57.70
2022-11-27T15:55:33.438Z,59.30
2022-11-27T15:58:22.094Z,58.40
2022-11-27T16:01:11.601Z,59.80
2022-11-27T16:04:00.310Z,58.00
2022-11-27T16:06:50.386Z,58.70
2022-11-27T16:09:39.906Z,59.40
2022-11-27T16:12:28.602Z,59.30
2022-11-27T16:15:17.410Z,57.90
2022-11-27T16:18:07.196Z,54.80
2022-11-27T16:20:55.913Z,55.00
2022-11-27T16:23:46.399Z,55.90
2022-11-27T16:26:36.845Z,56.00
2022-11-27T16:29:25.624Z,56.40
2022-11-27T16:32:14.288Z,56.70
2022-11-27T16:35:03.035Z,56.40
2022-11-27T16:37:51.648Z,56.50
2022-11-27T16:40:41.765Z,56.60
2022-11-27T16:43:30.686Z,56.30
2022-11-27T16:46:21.480Z,53.60
2022-11-27T16:49:10.174Z,53.90
2022-11-27T16:51:58.887Z,51.30
2022-11-27T16:54:47.541Z,51.30
2022-11-27T16:57:37.630Z,52.60
2022-11-27T17:00:26.321Z,54.10
2022-11-27T17:03:14.954Z,48.00
2022-11-27T17:06:08.707Z,48.20
2022-11-27T17:08:58.369Z,48.00
2022-11-27T17:11:49.474Z,47.30
2022-11-27T17:14:39.871Z,47.10
2022-11-27T17:17:29.859Z,45.40
2022-11-27T17:20:18.678Z,45.30
2022-11-27T17:23:07.377Z,46.40
2022-11-27T17:25:56.057Z,48.00
2022-11-27T17:28:44.739Z,49.60
2022-11-27T17:31:37.084Z,50.60
2022-11-27T17:34:25.801Z,51.70
2022-11-27T17:37:14.542Z,53.80
2022-11-27T17:40:03.491Z,53.00
2022-11-27T17:42:52.150Z,50.80
2022-11-27T17:45:42.223Z,50.20
2022-11-27T17:48:32.732Z,48.30
2022-11-27T17:51:21.893Z,46.20
2022-11-27T17:54:12.681Z,47.20
2022-11-27T17:57:01.941Z,48.90
2022-11-27T17:59:51.088Z,48.00
2022-11-27T18:02:39.831Z,47.00
2022-11-27T18:05:30.158Z,47.20
2022-11-27T18:08:18.918Z,46.90
2022-11-27T18:11:09.294Z,49.20
2022-11-27T18:13:58.310Z,49.60
2022-11-27T18:16:47.073Z,46.70
2022-11-27T18:19:35.914Z,49.00
2022-11-27T18:22:26.114Z,49.80
2022-11-27T18:25:14.738Z,48.80
2022-11-27T18:28:04.052Z,49.30
2022-11-27T18:30:52.779Z,47.40
2022-11-27T18:33:41.693Z,41.90
2022-11-27T18:36:31.213Z,39.60
2022-11-27T18:39:21.741Z,40.60
2022-11-27T18:42:10.464Z,39.80
2022-11-27T18:44:59.107Z,39.40
2022-11-27T18:47:47.817Z,37.10
2022-11-27T18:50:37.108Z,38.50
2022-11-27T18:53:25.801Z,36.90
2022-11-27T18:56:17.796Z,39.80
2022-11-27T18:59:07.731Z,41.90
2022-11-27T19:01:56.525Z,40.60
2022-11-27T19:04:45.375Z,39.90
2022-11-27T19:07:34.180Z,40.40
2022-11-27T19:10:22.856Z,40.50
2022-11-27T19:13:12.939Z,39.80
2022-11-27T19:16:05.577Z,39.90
2022-11-27T19:18:56.880Z,41.00
2022-11-27T19:21:45.555Z,39.60
2022-11-27T19:24:34.226Z,40.60
2022-11-27T19:27:22.935Z,42.20
2022-11-27T19:30:14.116Z,41.60
2022-11-27T19:33:02.877Z,42.30
2022-11-27T19:35:51.533Z,41.70
2022-11-27T19:38:41.684Z,42.30
2022-11-27T19:41:30.354Z,43.70
2022-11-27T19:44:19.060Z,43.70
2022-11-27T19:47:09.796Z,45.40
2022-11-27T19:49:58.410Z,47.60
2022-11-27T19:52:47.351Z,49.00
2022-11-27T19:55:36.072Z,51.00
2022-11-27T19:58:24.735Z,52.30
2022-11-27T20:01:15.245Z,53.50
2022-11-27T20:04:05.697Z,54.30
2022-11-27T20:06:54.508Z,54.10
2022-11-27T20:09:43.203Z,54.20
2022-11-27T20:12:36.389Z,54.90
2022-11-27T20:15:25.037Z,53.70
2022-11-27T20:18:13.710Z,54.00
2022-11-27T20:21:08.517Z,52.70
2022-11-27T20:23:57.808Z,52.60
2022-11-27T20:26:46.714Z,52.50
2022-11-27T20:29:35.381Z,53.70
2022-11-27T20:32:24.123Z,54.40
2022-11-27T20:35:12.818Z,55.80
2022-11-27T20:38:02.893Z,56.20
2022-11-27T20:40:52.228Z,56.00
2022-11-27T20:43:41.697Z,57.40
2022-11-27T20:46:30.404Z,58.50
2022-11-27T20:49:19.631Z,59.30
2022-11-27T20:52:08.305Z,59.70
2022-11-27T20:54:58.331Z,61.40
2022-11-27T20:57:50.782Z,63.90
2022-11-27T21:00:40.879Z,64.60
2022-11-27T21:03:30.394Z,65.50
2022-11-27T21:06:21.946Z,65.70
2022-11-27T21:09:10.614Z,66.90
2022-11-27T21:12:00.639Z,66.90
2022-11-27T21:14:49.288Z,66.50
2022-11-27T21:17:38.021Z,66.80
2022-11-27T21:20:26.628Z,64.70
2022-11-27T21:23:15.343Z,64.40
2022-11-27T21:26:03.925Z,62.70
2022-11-27T21:28:54.102Z,62.20
2022-11-27T21:31:46.714Z,63.60
2022-11-27T21:34:36.020Z,61.90
2022-11-27T21:37:25.218Z,61.90
2022-11-27T21:40:14.757Z,62.20
2022-11-27T21:43:03.453Z,61.50
2022-11-27T21:45:53.903Z,62.60
2022-11-27T21:48:42.653Z,62.00
2022-11-27T21:51:31.741Z,61.60
2022-11-27T21:54:20.811Z,60.60
2022-11-27T21:57:09.493Z,60.60
2022-11-27T21:59:58.216Z,61.70
2022-11-27T22:02:48.406Z,62.80
2022-11-27T22:05:37.223Z,62.30
2022-11-27T22:08:25.860Z,60.60
2022-11-27T22:11:16.457Z,61.10
2022-11-27T22:14:07.082Z,63.10
2022-11-27T22:16:57.107Z,62.70
2022-11-27T22:19:47.262Z,63.50
2022-11-27T22:22:35.925Z,62.80
2022-11-27T22:25:24.567Z,62.80
2022-11-27T22:28:13.234Z,63.30
2022-11-27T22:31:02.198Z,63.90
2022-11-27T22:33:50.992Z,63.10
2022-11-27T22:36:41.066Z,62.60
2022-11-27T22:39:29.698Z,63.40
2022-11-27T22:42:18.330Z,63.40
2022-11-27T22:45:08.448Z,64.10
2022-11-27T22:47:57.140Z,64.70
2022-11-27T22:50:45.783Z,66.10
2022-11-27T22:53:36.186Z,66.60
2022-11-27T22:56:25.864Z,66.70
2022-11-27T22:59:32.797Z,65.90
2022-11-27T23:02:22.607Z,66.30
2022-11-27T23:05:11.293Z,66.50
2022-11-27T23:08:00.088Z,67.20
2022-11-27T23:10:51.450Z,67.30
2022-11-27T23:13:42.763Z,66.70
2022-11-27T23:16:34.837Z,67.30
2022-11-27T23:19:23.586Z,67.00
2022-11-27T23:22:12.251Z,67.60
2022-11-27T23:25:00.929Z,68.00
2022-11-27T23:27:50.992Z,68.00
2022-11-27T23:30:39.840Z,67.60
2022-11-27T23:33:28.576Z,66.70
2022-11-27T23:36:17.279Z,65.50
2022-11-27T23:39:08.475Z,62.70
2022-11-27T23:41:57.138Z,62.70
2022-11-27T23:44:47.260Z,62.40
2022-11-27T23:47:35.965Z,63.10
2022-11-27T23:50:24.761Z,63.40
2022-11-27T23:53:13.407Z,62.70
2022-11-27T23:56:03.367Z,63.00
2022-11-27T23:58:52.710Z,61.90
